createdAt,value
2022-08-29T00:00:26.060Z,101458.19
2022-08-29T00:01:31.396Z,101449.72
2022-08-29T00:02:33.720Z,101461.72
2022-08-29T00:03:40.773Z,101459.88
2022-08-29T00:04:43.180Z,101452.78
2022-08-29T00:05:50.082Z,101449.06
2022-08-29T00:06:52.514Z,101460.66
2022-08-29T00:07:56.101Z,101460.31
2022-08-29T00:08:58.211Z,101460.66
2022-08-29T00:10:01.280Z,101455.25
2022-08-29T00:11:06.677Z,101458.81
2022-08-29T00:12:10.369Z,101459.88
2022-08-29T00:13:13.750Z,101451.53
2022-08-29T00:14:20.445Z,101450.56
2022-08-29T00:15:26.329Z,101450.69
2022-08-29T00:16:29.502Z,101450.69
2022-08-29T00:17:31.577Z,101453.41
2022-08-29T00:18:34.707Z,101453.41
2022-08-29T00:19:36.759Z,101451.75
2022-08-29T00:20:39.854Z,101448.00
2022-08-29T00:21:43.423Z,101445.28
2022-08-29T00:22:46.618Z,101447.75
2022-08-29T00:23:49.624Z,101452.34
2022-08-29T00:24:51.684Z,101450.47
2022-08-29T00:25:54.826Z,101453.16
2022-08-29T00:26:56.906Z,101452.94
2022-08-29T00:28:00.061Z,101450.69
2022-08-29T00:29:02.274Z,101463.75
2022-08-29T00:30:06.613Z,101455.63
2022-08-29T00:31:08.681Z,101454.59
2022-08-29T00:32:11.852Z,101453.75
2022-08-29T00:33:14.133Z,101458.09
2022-08-29T00:34:17.249Z,101462.47
2022-08-29T00:35:23.107Z,101457.06
2022-08-29T00:36:26.636Z,101460.59
2022-08-29T00:37:34.291Z,101462.25
2022-08-29T00:38:39.111Z,101462.25
2022-08-29T00:39:43.905Z,101456.84
2022-08-29T00:40:51.616Z,101463.06
2022-08-29T00:41:54.228Z,101460.13
2022-08-29T00:42:57.554Z,101462.25
2022-08-29T00:43:59.824Z,101472.59
2022-08-29T00:45:03.221Z,101466.16
2022-08-29T00:46:25.480Z,101464.47
2022-08-29T00:47:33.826Z,101465.31
2022-08-29T00:48:39.145Z,101478.00
2022-08-29T00:49:46.123Z,101464.72
2022-08-29T00:50:52.375Z,101466.34
2022-08-29T00:51:56.411Z,101456.59
2022-08-29T00:53:01.777Z,101460.38
2022-08-29T00:54:09.403Z,101468.25
2022-08-29T00:55:15.333Z,101476.34
2022-08-29T00:56:20.944Z,101469.28
2022-08-29T00:57:26.026Z,101468.47
2022-08-29T00:58:32.721Z,101474.69
2022-08-29T00:59:38.874Z,101473.88
2022-08-29T01:00:42.780Z,101479.06
2022-08-29T01:01:45.424Z,101470.13
2022-08-29T01:02:48.793Z,101471.75
2022-08-29T01:03:52.292Z,101475.28
2022-08-29T01:04:55.635Z,101481.53
2022-08-29T01:05:58.376Z,101469.66
2022-08-29T01:07:01.930Z,101480.09
2022-08-29T01:08:06.996Z,101480.22
2022-08-29T01:09:10.263Z,101481.91
2022-08-29T01:10:34.537Z,101473.78
2022-08-29T01:11:56.209Z,101471.88
2022-08-29T01:12:58.353Z,101473.56
2022-08-29T01:14:01.258Z,101474.81
2022-08-29T01:15:08.697Z,101477.09
2022-08-29T01:16:13.665Z,101478.13
2022-08-29T01:17:20.321Z,101472.25
2022-08-29T01:18:24.261Z,101472.72
2022-08-29T01:19:40.835Z,101477.66
2022-08-29T01:20:51.783Z,101468.75
2022-08-29T01:21:59.511Z,101474.97
2022-08-29T01:23:14.036Z,101467.69
2022-08-29T01:24:30.308Z,101471.22
2022-08-29T01:25:37.627Z,101471.22
2022-08-29T01:26:40.629Z,101478.28
2022-08-29T01:27:48.066Z,101476.41
2022-08-29T01:28:52.208Z,101473.69
2022-08-29T01:29:56.918Z,101466.41
2022-08-29T01:31:04.646Z,101466.41
2022-08-29T01:32:08.062Z,101468.06
2022-08-29T01:33:10.109Z,101476.16
2022-08-29T01:34:15.604Z,101473.47
2022-08-29T01:35:17.965Z,101473.47
2022-08-29T01:36:23.719Z,101480.72
2022-08-29T01:37:31.621Z,101473.47
2022-08-29T01:38:34.790Z,101477.81
2022-08-29T01:39:42.115Z,101476.16
2022-08-29T01:40:45.165Z,101479.69
2022-08-29T01:41:47.216Z,101481.56
2022-08-29T01:42:50.559Z,101473.47
2022-08-29T01:43:54.980Z,101481.56
2022-08-29T01:44:59.746Z,101482.63
2022-08-29T01:46:04.944Z,101486.16
2022-08-29T01:47:09.699Z,101488.03
2022-08-29T01:48:11.726Z,101484.50
2022-08-29T01:49:16.376Z,101487.22
2022-08-29T01:50:18.480Z,101486.38
2022-08-29T01:51:21.612Z,101482.84
2022-08-29T01:52:24.140Z,101492.84
2022-08-29T01:53:27.271Z,101488.47
2022-08-29T01:54:29.667Z,101488.47
2022-08-29T01:55:34.138Z,101486.59
2022-08-29T01:56:38.829Z,101491.19
2022-08-29T01:57:42.468Z,101485.78
2022-08-29T01:58:46.021Z,101483.06
2022-08-29T01:59:49.395Z,101481.06
2022-08-29T02:00:51.497Z,101477.66
2022-08-29T02:01:59.629Z,101476.03
2022-08-29T02:03:03.244Z,101481.44
2022-08-29T02:04:07.224Z,101472.50
2022-08-29T02:05:10.192Z,101474.81
2022-08-29T02:06:13.923Z,101479.19
2022-08-29T02:07:17.660Z,101477.53
2022-08-29T02:08:21.253Z,101485.06
2022-08-29T02:09:23.537Z,101479.88
2022-08-29T02:10:27.919Z,101477.41
2022-08-29T02:11:31.654Z,101482.00
2022-08-29T02:12:35.763Z,101475.53
2022-08-29T02:13:38.563Z,101478.22
2022-08-29T02:14:41.783Z,101480.09
2022-08-29T02:15:43.889Z,101479.06
2022-08-29T02:16:47.235Z,101484.47
2022-08-29T02:17:49.395Z,101480.09
2022-08-29T02:18:52.910Z,101471.63
2022-08-29T02:19:54.921Z,101477.41
2022-08-29T02:20:57.971Z,101480.94
2022-08-29T02:22:00.327Z,101467.03
2022-08-29T02:23:03.446Z,101481.75
2022-08-29T02:24:23.997Z,101478.47
2022-08-29T02:25:42.914Z,101476.34
2022-08-29T02:26:46.336Z,101474.47
2022-08-29T02:27:52.281Z,101482.38
2022-08-29T02:28:54.601Z,101474.25
2022-08-29T02:29:57.703Z,101472.59
2022-08-29T02:31:00.082Z,101472.59
2022-08-29T02:32:03.487Z,101475.06
2022-08-29T02:33:06.461Z,101472.13
2022-08-29T02:34:09.869Z,101475.91
2022-08-29T02:35:13.713Z,101463.06
2022-08-29T02:36:19.794Z,101466.16
2022-08-29T02:37:21.946Z,101468.84
2022-08-29T02:38:25.455Z,101467.19
2022-08-29T02:39:27.560Z,101468.47
2022-08-29T02:40:31.736Z,101466.81
2022-08-29T02:41:34.015Z,101467.88
2022-08-29T02:42:38.432Z,101461.03
2022-08-29T02:43:40.641Z,101471.03
2022-08-29T02:44:43.674Z,101480.19
2022-08-29T02:45:46.427Z,101469.59
2022-08-29T02:46:50.257Z,101480.41
2022-08-29T02:47:52.509Z,101480.66
2022-08-29T02:49:00.843Z,101475.25
2022-08-29T02:50:04.574Z,101471.72
2022-08-29T02:51:07.700Z,101477.13
2022-08-29T02:52:10.192Z,101474.41
2022-08-29T02:53:15.107Z,101476.09
2022-08-29T02:54:17.345Z,101471.47
2022-08-29T02:55:22.229Z,101470.69
2022-08-29T02:56:24.393Z,101472.31
2022-08-29T02:57:28.547Z,101476.88
2022-08-29T02:58:32.226Z,101471.47
2022-08-29T02:59:35.307Z,101464.22
2022-08-29T03:00:37.435Z,101469.59
2022-08-29T03:01:40.647Z,101466.06
2022-08-29T03:02:43.055Z,101464.44
2022-08-29T03:03:46.188Z,101463.59
2022-08-29T03:04:48.267Z,101468.44
2022-08-29T03:05:51.404Z,101465.72
2022-08-29T03:06:53.594Z,101462.44
2022-08-29T03:07:57.164Z,101466.16
2022-08-29T03:09:00.533Z,101456.66
2022-08-29T03:10:04.262Z,101470.41
2022-08-29T03:11:07.535Z,101462.75
2022-08-29T03:12:09.668Z,101467.56
2022-08-29T03:13:13.376Z,101465.31
2022-08-29T03:14:16.797Z,101465.50
2022-08-29T03:15:20.142Z,101457.63
2022-08-29T03:16:22.326Z,101463.50
2022-08-29T03:17:25.486Z,101451.16
2022-08-29T03:18:27.524Z,101458.78
2022-08-29T03:19:30.592Z,101458.19
2022-08-29T03:20:39.306Z,101460.28
2022-08-29T03:21:44.522Z,101461.56
2022-08-29T03:22:46.942Z,101458.28
2022-08-29T03:23:51.065Z,101456.84
2022-08-29T03:24:54.076Z,101465.38
2022-08-29T03:25:57.260Z,101468.31
2022-08-29T03:26:59.373Z,101465.00
2022-08-29T03:28:02.473Z,101463.38
2022-08-29T03:29:04.770Z,101467.13
2022-08-29T03:30:12.367Z,101470.28
2022-08-29T03:31:14.771Z,101464.28
2022-08-29T03:32:17.988Z,101464.69
2022-08-29T03:33:20.031Z,101466.81
2022-08-29T03:34:23.082Z,101462.44
2022-08-29T03:35:25.303Z,101456.91
2022-08-29T03:36:28.424Z,101464.75
2022-08-29T03:37:31.197Z,101466.84
2022-08-29T03:38:35.741Z,101466.06
2022-08-29T03:39:38.160Z,101463.81
2022-08-29T03:40:42.276Z,101460.50
2022-08-29T03:41:44.447Z,101463.19
2022-08-29T03:42:48.799Z,101465.28
2022-08-29T03:43:50.887Z,101460.34
2022-08-29T03:44:54.085Z,101458.69
2022-08-29T03:45:57.565Z,101462.44
2022-08-29T03:47:00.628Z,101467.22
2022-08-29T03:48:03.146Z,101455.25
2022-08-29T03:49:07.199Z,101464.97
2022-08-29T03:50:10.567Z,101463.34
2022-08-29T03:51:13.672Z,101463.34
2022-08-29T03:52:16.160Z,101465.22
2022-08-29T03:53:19.285Z,101467.06
2022-08-29T03:54:22.669Z,101465.44
2022-08-29T03:55:26.042Z,101470.84
2022-08-29T03:56:29.130Z,101466.47
2022-08-29T03:57:33.167Z,101468.38
2022-08-29T03:58:35.740Z,101466.47
2022-08-29T03:59:38.841Z,101464.22
2022-08-29T04:00:41.935Z,101470.22
2022-08-29T04:01:48.090Z,101470.22
2022-08-29T04:02:51.987Z,101477.50
2022-08-29T04:03:56.267Z,101477.50
2022-08-29T04:05:08.398Z,101479.16
2022-08-29T04:06:12.879Z,101475.63
2022-08-29T04:07:15.120Z,101475.63
2022-08-29T04:08:18.161Z,101466.47
2022-08-29T04:09:20.203Z,101465.44
2022-08-29T04:10:26.659Z,101464.22
2022-08-29T04:11:28.924Z,101479.72
2022-08-29T04:12:31.952Z,101476.84
2022-08-29T04:13:34.628Z,101476.63
2022-08-29T04:14:37.669Z,101474.72
2022-08-29T04:15:41.292Z,101480.72
2022-08-29T04:16:50.061Z,101483.19
2022-08-29T04:17:54.413Z,101478.03
2022-08-29T04:18:56.569Z,101482.75
2022-08-29T04:19:59.689Z,101478.78
2022-08-29T04:21:02.754Z,101482.97
2022-08-29T04:22:08.071Z,101490.81
2022-08-29T04:23:12.574Z,101490.81
2022-08-29T04:24:16.104Z,101485.97
2022-08-29T04:25:18.657Z,101493.06
2022-08-29T04:26:37.791Z,101490.13
2022-08-29T04:27:41.931Z,101493.44
2022-08-29T04:28:44.984Z,101502.94
2022-08-29T04:29:48.384Z,101511.88
2022-08-29T04:30:53.876Z,101505.63
2022-08-29T04:31:57.363Z,101511.66
2022-08-29T04:33:00.529Z,101512.50
2022-08-29T04:34:02.821Z,101511.03
2022-08-29T04:35:06.891Z,101520.41
2022-08-29T04:36:13.115Z,101518.50
2022-08-29T04:37:17.990Z,101516.63
2022-08-29T04:38:20.172Z,101519.31
2022-08-29T04:39:23.211Z,101519.31
2022-08-29T04:40:25.341Z,101517.47
2022-08-29T04:41:28.452Z,101516.63
2022-08-29T04:42:31.199Z,101520.41
2022-08-29T04:43:34.926Z,101523.09
2022-08-29T04:44:37.000Z,101522.03
2022-08-29T04:45:40.425Z,101520.16
2022-08-29T04:46:42.496Z,101519.31
2022-08-29T04:47:47.499Z,101504.22
2022-08-29T04:48:49.546Z,101521.00
2022-08-29T04:49:56.378Z,101525.34
2022-08-29T04:51:00.236Z,101515.59
2022-08-29T04:52:03.828Z,101514.53
2022-08-29T04:53:05.876Z,101522.63
2022-08-29T04:54:08.936Z,101525.34
2022-08-29T04:55:12.053Z,101526.41
2022-08-29T04:56:16.332Z,101528.03
2022-08-29T04:57:19.463Z,101529.09
2022-08-29T04:58:22.434Z,101526.97
2022-08-29T04:59:27.238Z,101535.06
2022-08-29T05:00:30.245Z,101525.09
2022-08-29T05:01:33.746Z,101530.28
2022-08-29T05:02:35.895Z,101533.59
2022-08-29T05:03:40.348Z,101538.78
2022-08-29T05:04:42.672Z,101534.19
2022-08-29T05:05:45.760Z,101540.22
2022-08-29T05:06:47.778Z,101537.28
2022-08-29T05:07:50.755Z,101530.81
2022-08-29T05:08:58.844Z,101542.22
2022-08-29T05:10:06.491Z,101538.69
2022-08-29T05:11:11.517Z,101540.38
2022-08-29T05:12:14.597Z,101547.19
2022-08-29T05:13:16.879Z,101534.50
2022-08-29T05:14:20.083Z,101536.97
2022-08-29T05:15:22.158Z,101530.75
2022-08-29T05:16:25.265Z,101535.91
2022-08-29T05:17:28.015Z,101533.22
2022-08-29T05:18:31.095Z,101528.03
2022-08-29T05:19:35.447Z,101532.25
2022-08-29T05:20:40.891Z,101528.50
2022-08-29T05:21:43.092Z,101526.41
2022-08-29T05:22:46.080Z,101526.84
2022-08-29T05:23:48.201Z,101534.34
2022-08-29T05:24:53.468Z,101532.91
2022-08-29T05:25:56.473Z,101538.53
2022-08-29T05:26:59.970Z,101539.81
2022-08-29T05:28:02.350Z,101535.06
2022-08-29T05:29:08.665Z,101539.06
2022-08-29T05:30:12.522Z,101535.72
2022-08-29T05:31:14.688Z,101553.22
2022-08-29T05:32:18.920Z,101540.97
2022-08-29T05:33:21.216Z,101549.28
2022-08-29T05:34:32.349Z,101544.13
2022-08-29T05:35:38.405Z,101540.44
2022-08-29T05:36:41.458Z,101549.53
2022-08-29T05:37:43.703Z,101549.75
2022-08-29T05:38:46.747Z,101553.25
2022-08-29T05:39:50.353Z,101550.56
2022-08-29T05:40:53.395Z,101553.25
2022-08-29T05:41:55.702Z,101548.69
2022-08-29T05:42:58.706Z,101551.63
2022-08-29T05:44:00.789Z,101551.38
2022-08-29T05:45:05.243Z,101565.72
2022-08-29T05:46:10.033Z,101556.78
2022-08-29T05:47:15.847Z,101556.34
2022-08-29T05:48:18.396Z,101555.31
2022-08-29T05:49:22.147Z,101556.09
2022-08-29T05:50:24.256Z,101551.53
2022-08-29T05:51:28.688Z,101551.94
2022-08-29T05:52:31.457Z,101559.19
2022-08-29T05:53:34.855Z,101557.75
2022-08-29T05:54:39.261Z,101525.06
2022-08-29T05:55:45.622Z,101556.44
2022-08-29T05:56:48.763Z,101557.53
2022-08-29T05:57:54.564Z,101563.91
2022-08-29T05:58:57.899Z,101553.72
2022-08-29T06:00:00.436Z,101558.06
2022-08-29T06:01:03.527Z,101554.28
2022-08-29T06:02:07.487Z,101554.06
2022-08-29T06:03:10.878Z,101550.34
2022-08-29T06:04:13.371Z,101558.22
2022-08-29T06:05:16.616Z,101550.34
2022-08-29T06:06:20.706Z,101549.03
2022-08-29T06:07:27.875Z,101558.22
2022-08-29T06:08:29.935Z,101559.44
2022-08-29T06:09:33.292Z,101569.16
2022-08-29T06:10:41.312Z,101561.28
2022-08-29T06:11:47.786Z,101566.00
2022-08-29T06:12:49.826Z,101570.16
2022-08-29T06:13:52.911Z,101569.94
2022-08-29T06:14:55.000Z,101572.41
2022-08-29T06:15:58.411Z,101568.41
2022-08-29T06:17:00.777Z,101572.56
2022-08-29T06:18:04.595Z,101576.66
2022-08-29T06:19:06.896Z,101574.78
2022-08-29T06:20:11.682Z,101573.53
2022-08-29T06:21:14.832Z,101574.34
2022-08-29T06:22:19.741Z,101576.81
2022-08-29T06:23:23.506Z,101576.59
2022-08-29T06:24:31.830Z,101587.19
2022-08-29T06:25:39.474Z,101582.59
2022-08-29T06:26:44.772Z,101582.38
2022-08-29T06:27:46.907Z,101585.69
2022-08-29T06:28:50.398Z,101574.88
2022-08-29T06:29:52.444Z,101580.88
2022-08-29T06:30:55.479Z,101584.41
2022-08-29T06:31:58.562Z,101591.69
2022-08-29T06:33:02.221Z,101580.88
2022-08-29T06:34:06.519Z,101580.88
2022-08-29T06:35:09.838Z,101583.34
2022-08-29T06:36:12.257Z,101583.34
2022-08-29T06:37:15.633Z,101588.75
2022-08-29T06:38:18.015Z,101587.13
2022-08-29T06:39:22.755Z,101593.94
2022-08-29T06:40:24.822Z,101595.38
2022-08-29T06:41:28.778Z,101598.06
2022-08-29T06:42:34.299Z,101596.78
2022-08-29T06:43:40.506Z,101601.16
2022-08-29T06:44:44.599Z,101601.16
2022-08-29T06:45:46.892Z,101595.94
2022-08-29T06:46:50.863Z,101596.19
2022-08-29T06:47:53.360Z,101597.47
2022-08-29T06:48:58.043Z,101588.38
2022-08-29T06:50:01.406Z,101580.88
2022-08-29T06:51:04.117Z,101588.38
2022-08-29T06:52:07.205Z,101584.66
2022-08-29T06:53:26.446Z,101589.22
2022-08-29T06:54:31.684Z,101582.50
2022-08-29T06:55:34.972Z,101591.00
2022-08-29T06:56:38.553Z,101586.81
2022-08-29T06:57:45.429Z,101591.53
2022-08-29T06:58:47.731Z,101592.72
2022-08-29T06:59:50.811Z,101590.97
2022-08-29T07:00:52.863Z,101594.91
2022-08-29T07:01:56.217Z,101602.31
2022-08-29T07:02:58.762Z,101592.56
2022-08-29T07:04:03.252Z,101599.19
2022-08-29T07:05:06.534Z,101598.13
2022-08-29T07:06:10.369Z,101598.13
2022-08-29T07:07:12.405Z,101601.88
2022-08-29T07:08:15.501Z,101596.91
2022-08-29T07:09:17.804Z,101592.56
2022-08-29T07:10:22.932Z,101592.56
2022-08-29T07:11:26.540Z,101590.09
2022-08-29T07:12:29.602Z,101600.06
2022-08-29T07:13:34.619Z,101588.88
2022-08-29T07:14:37.762Z,101591.97
2022-08-29T07:15:39.856Z,101599.22
2022-08-29T07:16:43.084Z,101598.19
2022-08-29T07:17:45.698Z,101597.75
2022-08-29T07:18:48.833Z,101600.81
2022-08-29T07:19:51.891Z,101600.34
2022-08-29T07:20:54.956Z,101591.56
2022-08-29T07:21:59.612Z,101594.63
2022-08-29T07:23:01.710Z,101591.88
2022-08-29T07:24:05.029Z,101590.13
2022-08-29T07:25:10.315Z,101593.81
2022-08-29T07:26:16.545Z,101599.13
2022-08-29T07:27:19.759Z,101592.78
2022-08-29T07:28:21.773Z,101600.59
2022-08-29T07:29:26.032Z,101595.06
2022-08-29T07:30:28.270Z,101600.38
2022-08-29T07:31:31.699Z,101599.44
2022-08-29T07:32:33.867Z,101609.94
2022-08-29T07:33:37.329Z,101600.06
2022-08-29T07:34:40.339Z,101600.41
2022-08-29T07:35:42.336Z,101594.53
2022-08-29T07:36:45.438Z,101600.06
2022-08-29T07:37:50.751Z,101599.84
2022-08-29T07:38:54.027Z,101600.78
2022-08-29T07:39:57.128Z,101604.09
2022-08-29T07:40:59.885Z,101604.69
2022-08-29T07:42:05.802Z,101604.69
2022-08-29T07:43:07.814Z,101607.41
2022-08-29T07:44:11.941Z,101602.78
2022-08-29T07:45:14.863Z,101611.78
2022-08-29T07:46:20.240Z,101610.91
2022-08-29T07:47:22.573Z,101612.22
2022-08-29T07:48:26.793Z,101610.00
2022-08-29T07:49:40.941Z,101614.81
2022-08-29T07:50:44.353Z,101616.91
2022-08-29T07:51:47.432Z,101617.97
2022-08-29T07:52:49.510Z,101607.72
2022-08-29T07:53:53.035Z,101609.38
2022-08-29T07:54:56.178Z,101612.34
2022-08-29T07:55:58.295Z,101617.63
2022-08-29T07:57:01.384Z,101611.78
2022-08-29T07:58:04.990Z,101611.31
2022-08-29T07:59:08.684Z,101615.44
2022-08-29T08:00:12.573Z,101617.31
2022-08-29T08:01:20.967Z,101618.75
2022-08-29T08:02:24.868Z,101619.31
2022-08-29T08:03:27.293Z,101622.84
2022-08-29T08:04:30.708Z,101619.91
2022-08-29T08:05:32.805Z,101624.03
2022-08-29T08:06:36.978Z,101628.63
2022-08-29T08:07:40.438Z,101628.41
2022-08-29T08:08:42.975Z,101632.28
2022-08-29T08:09:46.052Z,101634.75
2022-08-29T08:10:52.207Z,101640.53
2022-08-29T08:11:55.697Z,101638.41
2022-08-29T08:12:58.776Z,101637.94
2022-08-29T08:14:04.422Z,101639.09
2022-08-29T08:15:08.049Z,101638.19
2022-08-29T08:16:13.424Z,101637.72
2022-08-29T08:17:16.490Z,101639.69
2022-08-29T08:18:18.688Z,101644.63
2022-08-29T08:19:21.708Z,101644.75
2022-08-29T08:20:25.079Z,101637.22
2022-08-29T08:21:27.828Z,101640.28
2022-08-29T08:22:30.954Z,101641.47
2022-08-29T08:23:33.989Z,101644.72
2022-08-29T08:24:37.251Z,101639.91
2022-08-29T08:25:40.353Z,101647.56
2022-08-29T08:26:43.437Z,101644.38
2022-08-29T08:27:45.556Z,101642.47
2022-08-29T08:28:48.621Z,101640.13
2022-08-29T08:29:53.124Z,101650.72
2022-08-29T08:31:03.604Z,101641.91
2022-08-29T08:32:08.848Z,101637.88
2022-08-29T08:33:12.315Z,101644.25
2022-08-29T08:34:15.629Z,101633.75
2022-08-29T08:35:22.559Z,101640.91
2022-08-29T08:36:28.760Z,101631.25
2022-08-29T08:37:30.770Z,101639.50
2022-08-29T08:38:33.895Z,101636.28
2022-08-29T08:39:37.463Z,101637.47
2022-08-29T08:40:45.115Z,101627.50
2022-08-29T08:41:54.242Z,101634.13
2022-08-29T08:43:00.406Z,101636.09
2022-08-29T08:44:06.722Z,101639.72
2022-08-29T08:45:12.936Z,101643.59
2022-08-29T08:46:16.734Z,101641.22
2022-08-29T08:47:25.838Z,101642.16
2022-08-29T08:48:37.141Z,101642.25
2022-08-29T08:49:44.938Z,101639.84
2022-08-29T08:50:54.813Z,101641.66
2022-08-29T08:52:02.182Z,101636.94
2022-08-29T08:53:11.809Z,101643.88
2022-08-29T08:54:22.457Z,101647.25
2022-08-29T08:55:28.301Z,101642.97
2022-08-29T08:56:36.795Z,101646.03
2022-08-29T08:57:45.651Z,101652.84
2022-08-29T08:58:53.605Z,101651.78
2022-08-29T08:59:59.569Z,101651.53
2022-08-29T09:01:11.109Z,101647.19
2022-08-29T09:02:26.889Z,101642.81
2022-08-29T09:04:07.737Z,101639.75
2022-08-29T09:05:29.573Z,101641.66
2022-08-29T09:06:51.896Z,101665.88
2022-08-29T09:08:04.214Z,101644.22
2022-08-29T09:09:19.298Z,101635.81
2022-08-29T09:10:33.005Z,101641.84
2022-08-29T09:11:45.268Z,101651.94
2022-08-29T09:12:57.257Z,101651.69
2022-08-29T09:14:08.466Z,101646.84
2022-08-29T09:15:14.219Z,101655.00
2022-08-29T09:16:25.158Z,101655.25
2022-08-29T09:17:36.504Z,101651.13
2022-08-29T09:18:42.228Z,101658.22
2022-08-29T09:19:45.085Z,101659.03
2022-08-29T09:20:48.309Z,101660.94
2022-08-29T09:21:53.816Z,101660.69
2022-08-29T09:23:01.611Z,101657.97
2022-08-29T09:24:11.401Z,101657.97
2022-08-29T09:25:13.631Z,101664.00
2022-08-29T09:26:18.517Z,101663.50
2022-08-29T09:27:23.093Z,101665.13
2022-08-29T09:28:26.311Z,101656.97
2022-08-29T09:29:32.636Z,101657.22
2022-08-29T09:30:38.980Z,101650.88
2022-08-29T09:31:43.531Z,101665.03
2022-08-29T09:32:58.071Z,101661.75
2022-08-29T09:34:02.932Z,101659.03
2022-08-29T09:35:19.914Z,101659.28
2022-08-29T09:36:39.543Z,101654.09
2022-08-29T09:37:41.655Z,101652.44
2022-08-29T09:38:44.710Z,101655.16
2022-08-29T09:39:53.815Z,101649.66
2022-08-29T09:40:59.637Z,101652.91
2022-08-29T09:42:19.235Z,101652.91
2022-08-29T09:43:27.053Z,101655.88
2022-08-29T09:44:33.411Z,101656.72
2022-08-29T09:45:35.788Z,101657.81
2022-08-29T09:46:38.859Z,101654.59
2022-08-29T09:47:42.366Z,101661.41
2022-08-29T09:48:47.971Z,101657.38
2022-08-29T09:50:07.215Z,101658.56
2022-08-29T09:51:12.219Z,101658.84
2022-08-29T09:52:24.525Z,101663.81
2022-08-29T09:53:26.807Z,101664.16
2022-08-29T09:54:31.949Z,101668.25
2022-08-29T09:55:39.152Z,101661.50
2022-08-29T09:56:50.275Z,101648.97
2022-08-29T09:57:57.859Z,101658.88
2022-08-29T09:59:05.895Z,101660.50
2022-08-29T10:00:12.692Z,101664.59
2022-08-29T10:01:21.665Z,101667.31
2022-08-29T10:02:33.559Z,101665.44
2022-08-29T10:03:43.060Z,101665.09
2022-08-29T10:04:47.705Z,101668.16
2022-08-29T10:05:50.956Z,101668.72
2022-08-29T10:06:53.066Z,101662.22
2022-08-29T10:07:57.958Z,101670.69
2022-08-29T10:09:05.635Z,101666.09
2022-08-29T10:10:16.967Z,101661.22
2022-08-29T10:11:29.174Z,101665.06
2022-08-29T10:12:51.561Z,101664.59
2022-08-29T10:13:58.233Z,101662.22
2022-08-29T10:15:04.442Z,101673.16
2022-08-29T10:16:16.424Z,101661.53
2022-08-29T10:17:46.669Z,101660.19
2022-08-29T10:18:54.884Z,101668.50
2022-08-29T10:19:56.949Z,101671.03
2022-08-29T10:21:10.343Z,101669.78
2022-08-29T10:22:34.392Z,101667.97
2022-08-29T10:23:49.204Z,101673.53
2022-08-29T10:24:59.001Z,101671.34
2022-08-29T10:26:09.262Z,101670.34
2022-08-29T10:27:25.009Z,101675.28
2022-08-29T10:28:35.419Z,101672.31
2022-08-29T10:29:56.267Z,101674.44
2022-08-29T10:31:06.275Z,101678.25
2022-08-29T10:32:22.727Z,101671.16
2022-08-29T10:33:43.108Z,101690.72
2022-08-29T10:35:02.207Z,101671.09
2022-08-29T10:36:12.131Z,101672.44
2022-08-29T10:37:23.762Z,101667.25
2022-08-29T10:38:45.421Z,101671.88
2022-08-29T10:40:02.277Z,101680.03
2022-08-29T10:41:14.853Z,101677.06
2022-08-29T10:42:21.789Z,101686.31
2022-08-29T10:43:39.727Z,101689.34
2022-08-29T10:44:57.501Z,101678.47
2022-08-29T10:46:21.658Z,101677.38
2022-08-29T10:47:32.208Z,101690.72
2022-08-29T10:48:37.455Z,101684.22
2022-08-29T10:50:10.118Z,101680.16
2022-08-29T10:51:31.488Z,101680.47
2022-08-29T10:52:39.248Z,101678.06
2022-08-29T10:53:46.197Z,101684.88
2022-08-29T10:54:55.249Z,101689.28
2022-08-29T10:56:05.845Z,101689.84
2022-08-29T10:57:09.511Z,101687.94
2022-08-29T10:58:21.966Z,101687.94
2022-08-29T10:59:39.723Z,101687.94
2022-08-29T11:00:46.641Z,101693.38
2022-08-29T11:01:56.820Z,101681.41
2022-08-29T11:03:07.986Z,101689.59
2022-08-29T11:04:20.625Z,101690.41
2022-08-29T11:05:26.375Z,101687.94
2022-08-29T11:06:33.200Z,101694.97
2022-08-29T11:07:43.196Z,101712.69
2022-08-29T11:08:51.297Z,101688.19
2022-08-29T11:09:58.346Z,101693.63
2022-08-29T11:11:01.637Z,101692.94
2022-08-29T11:12:09.466Z,101691.56
2022-08-29T11:13:21.587Z,101693.22
2022-08-29T11:14:29.448Z,101691.38
2022-08-29T11:15:39.115Z,101687.06
2022-08-29T11:16:47.915Z,101681.63
2022-08-29T11:17:58.307Z,101690.97
2022-08-29T11:19:09.413Z,101692.63
2022-08-29T11:20:17.830Z,101686.41
2022-08-29T11:21:33.173Z,101691.06
2022-08-29T11:22:42.179Z,101686.75
2022-08-29T11:23:47.636Z,101696.06
2022-08-29T11:25:01.216Z,101690.09
2022-08-29T11:26:09.675Z,101687.13
2022-08-29T11:27:22.919Z,101683.56
2022-08-29T11:28:41.128Z,101681.66
2022-08-29T11:29:57.379Z,101688.22
2022-08-29T11:31:12.052Z,101686.91
2022-08-29T11:32:26.316Z,101697.84
2022-08-29T11:33:38.184Z,101692.41
2022-08-29T11:34:54.239Z,101690.78
2022-08-29T11:36:14.222Z,101690.78
2022-08-29T11:37:35.803Z,101697.53
2022-08-29T11:39:01.712Z,101693.44
2022-08-29T11:40:10.183Z,101692.03
2022-08-29T11:41:28.027Z,101695.28
2022-08-29T11:42:50.560Z,101702.06
2022-08-29T11:43:56.638Z,101708.88
2022-08-29T11:45:01.981Z,101694.94
2022-08-29T11:46:06.626Z,101697.09
2022-08-29T11:47:40.530Z,101696.50
2022-08-29T11:48:50.758Z,101705.78
2022-08-29T11:49:55.320Z,101699.75
2022-08-29T11:51:30.420Z,101702.50
2022-08-29T11:52:36.527Z,101700.28
2022-08-29T11:53:42.836Z,101698.66
2022-08-29T11:55:16.401Z,101702.44
2022-08-29T11:56:28.219Z,101704.31
2022-08-29T11:58:08.850Z,101705.16
2022-08-29T11:59:57.770Z,101701.88
2022-08-29T12:01:00.835Z,101709.53
2022-08-29T12:02:02.921Z,101699.72
2022-08-29T12:03:15.153Z,101708.44
2022-08-29T12:04:57.701Z,101701.91
2022-08-29T12:06:10.319Z,101708.78
2022-08-29T12:07:18.302Z,101701.91
2022-08-29T12:08:37.207Z,101711.75
2022-08-29T12:09:55.831Z,101721.50
2022-08-29T12:11:03.678Z,101712.75
2022-08-29T12:12:18.010Z,101718.72
2022-08-29T12:13:56.454Z,101714.06
2022-08-29T12:16:00.261Z,101711.84
2022-08-29T12:17:10.619Z,101708.81
2022-08-29T12:18:47.737Z,101712.59
2022-08-29T12:19:54.725Z,101715.56
2022-08-29T12:20:58.798Z,101711.22
2022-08-29T12:22:01.130Z,101726.97
2022-08-29T12:23:07.421Z,101719.91
2022-08-29T12:24:30.637Z,101722.78
2022-08-29T12:25:48.035Z,101733.91
2022-08-29T12:26:53.172Z,101735.25
2022-08-29T12:28:06.232Z,101724.63
2022-08-29T12:29:19.478Z,101736.03
2022-08-29T12:30:23.503Z,101730.25
2022-08-29T12:32:02.406Z,101735.38
2022-08-29T12:33:26.966Z,101720.88
2022-08-29T12:34:42.052Z,101728.47
2022-08-29T12:36:20.522Z,101727.34
2022-08-29T12:37:50.354Z,101731.13
2022-08-29T12:39:11.102Z,101725.66